createdAt,value
2019-03-20T00:01:11.057Z,6.97
2019-03-20T00:03:41.222Z,6.67
2019-03-20T00:06:11.979Z,6.70
2019-03-20T00:08:42.734Z,7.43
2019-03-20T00:11:13.793Z,7.60
2019-03-20T00:13:44.516Z,7.20
2019-03-20T00:16:14.772Z,6.90
2019-03-20T00:18:45.010Z,8.03
2019-03-20T00:21:16.165Z,7.27
2019-03-20T00:23:47.651Z,7.50
2019-03-20T00:26:19.271Z,7.43
2019-03-20T00:28:49.508Z,7.50
2019-03-20T00:31:20.577Z,7.23
2019-03-20T00:33:50.841Z,7.27
2019-03-20T00:36:21.810Z,7.03
2019-03-20T00:38:52.688Z,7.63
2019-03-20T00:41:25.716Z,7.70
2019-03-20T00:43:56.210Z,8.13
2019-03-20T00:46:26.422Z,7.77
2019-03-20T00:48:58.264Z,7.63
2019-03-20T00:51:29.765Z,8.40
2019-03-20T00:54:00.911Z,7.63
2019-03-20T00:56:32.908Z,7.53
2019-03-20T00:59:03.423Z,7.77
2019-03-20T01:01:34.068Z,7.57
2019-03-20T01:04:04.892Z,8.23
2019-03-20T01:06:35.506Z,8.03
2019-03-20T01:09:08.119Z,7.90
2019-03-20T01:11:39.183Z,7.63
2019-03-20T01:14:10.125Z,7.50
2019-03-20T01:16:40.483Z,7.43
2019-03-20T01:19:10.907Z,7.53
2019-03-20T01:21:42.248Z,7.30
2019-03-20T01:24:12.685Z,7.20
2019-03-20T01:26:43.384Z,7.10
2019-03-20T01:29:14.046Z,6.93
2019-03-20T01:31:44.741Z,7.40
2019-03-20T01:34:14.904Z,7.70
2019-03-20T01:36:46.361Z,7.97
2019-03-20T01:39:18.219Z,7.70
2019-03-20T01:41:50.474Z,7.80
2019-03-20T01:44:20.925Z,7.80
2019-03-20T01:46:52.110Z,7.77
2019-03-20T01:49:23.250Z,7.83
2019-03-20T01:51:53.997Z,7.73
2019-03-20T01:54:24.516Z,8.13
2019-03-20T01:56:54.704Z,7.53
2019-03-20T01:59:25.812Z,7.73
2019-03-20T02:01:56.838Z,8.00
2019-03-20T02:04:28.399Z,7.87
2019-03-20T02:06:58.562Z,7.57
2019-03-20T02:09:28.760Z,8.30
2019-03-20T02:12:00.215Z,8.50
2019-03-20T02:14:31.466Z,8.30
2019-03-20T02:17:01.618Z,8.10
2019-03-20T02:19:31.842Z,8.13
2019-03-20T02:22:02.419Z,7.80
2019-03-20T02:24:33.199Z,8.30
2019-03-20T02:27:03.550Z,8.13
2019-03-20T02:29:34.209Z,7.97
2019-03-20T02:32:05.696Z,8.23
2019-03-20T02:34:36.664Z,8.70
2019-03-20T02:37:08.199Z,8.90
2019-03-20T02:39:39.511Z,8.70
2019-03-20T02:42:09.724Z,8.90
2019-03-20T02:44:40.190Z,8.67
2019-03-20T02:47:10.373Z,8.60
2019-03-20T02:49:41.943Z,8.57
2019-03-20T02:52:12.877Z,9.00
2019-03-20T02:54:44.052Z,8.50
2019-03-20T02:57:17.338Z,8.30
2019-03-20T02:59:46.734Z,8.17
2019-03-20T03:02:18.105Z,8.50
2019-03-20T03:04:50.089Z,8.87
2019-03-20T03:07:21.141Z,8.40
2019-03-20T03:09:51.319Z,9.00
2019-03-20T03:12:21.680Z,8.40
2019-03-20T03:14:51.962Z,8.27
2019-03-20T03:17:22.108Z,8.50
2019-03-20T03:19:53.525Z,8.17
2019-03-20T03:22:24.487Z,8.40
2019-03-20T03:24:54.719Z,8.23
2019-03-20T03:27:25.609Z,8.13
2019-03-20T03:29:56.798Z,8.27
2019-03-20T03:32:27.002Z,8.43
2019-03-20T03:34:58.075Z,8.20
2019-03-20T03:37:28.708Z,8.87
2019-03-20T03:40:00.637Z,8.17
2019-03-20T03:42:31.435Z,8.50
2019-03-20T03:45:01.637Z,8.57
2019-03-20T03:47:31.829Z,8.40
2019-03-20T03:50:03.518Z,8.80
2019-03-20T03:52:35.367Z,8.90
2019-03-20T03:55:08.754Z,8.53
2019-03-20T03:57:40.013Z,8.20
2019-03-20T04:00:12.484Z,8.70
2019-03-20T04:02:43.749Z,8.50
2019-03-20T04:05:16.568Z,8.33
2019-03-20T04:07:46.714Z,8.50
2019-03-20T04:10:17.026Z,8.30
2019-03-20T04:12:47.936Z,9.00
2019-03-20T04:15:18.637Z,8.07
2019-03-20T04:17:48.822Z,8.20
2019-03-20T04:20:19.595Z,8.17
2019-03-20T04:22:50.222Z,7.97
2019-03-20T04:25:20.842Z,8.70
2019-03-20T04:27:51.402Z,8.43
2019-03-20T04:30:21.930Z,8.47
2019-03-20T04:32:52.138Z,8.73
2019-03-20T04:35:23.578Z,8.43
2019-03-20T04:37:54.323Z,8.90
2019-03-20T04:40:25.153Z,8.57
2019-03-20T04:42:55.450Z,8.57
2019-03-20T04:45:25.596Z,8.40
2019-03-20T04:47:55.751Z,8.67
2019-03-20T04:50:27.388Z,9.63
2019-03-20T04:52:59.029Z,8.60
2019-03-20T04:55:30.493Z,8.43
2019-03-20T04:58:00.925Z,8.80
2019-03-20T05:00:31.780Z,8.67
2019-03-20T05:03:02.249Z,8.40
2019-03-20T05:05:32.400Z,8.90
2019-03-20T05:08:03.278Z,8.70
2019-03-20T05:10:34.324Z,9.13
2019-03-20T05:13:05.424Z,9.03
2019-03-20T05:15:36.063Z,8.70
2019-03-20T05:18:07.304Z,9.17
2019-03-20T05:20:37.875Z,8.73
2019-03-20T05:23:09.830Z,9.57
2019-03-20T05:25:40.011Z,9.77
2019-03-20T05:28:10.184Z,8.73
2019-03-20T05:30:40.657Z,8.90
2019-03-20T05:33:12.914Z,9.20
2019-03-20T05:35:43.445Z,9.47
2019-03-20T05:38:14.630Z,8.97
2019-03-20T05:40:47.782Z,9.47
2019-03-20T05:43:19.493Z,9.10
2019-03-20T05:45:49.768Z,8.53
2019-03-20T05:48:20.005Z,8.90
2019-03-20T05:50:50.600Z,8.70
2019-03-20T05:53:21.203Z,8.60
2019-03-20T05:56:31.083Z,8.93
2019-03-20T05:59:03.351Z,8.37
2019-03-20T06:01:33.868Z,8.67
2019-03-20T06:04:04.473Z,8.90
2019-03-20T06:06:36.664Z,8.77
2019-03-20T06:09:10.874Z,8.60
2019-03-20T06:11:41.822Z,8.87
2019-03-20T06:14:15.185Z,8.20
2019-03-20T06:16:46.186Z,8.80
2019-03-20T06:19:16.776Z,8.67
2019-03-20T06:21:47.309Z,9.03
2019-03-20T06:24:17.470Z,8.50
2019-03-20T06:26:47.869Z,8.57
2019-03-20T06:29:20.249Z,9.47
2019-03-20T06:31:52.016Z,8.83
2019-03-20T06:34:23.069Z,9.20
2019-03-20T06:36:54.383Z,8.97
2019-03-20T06:39:26.329Z,9.00
2019-03-20T06:41:58.371Z,8.97
2019-03-20T06:44:28.801Z,9.00
2019-03-20T06:47:00.073Z,8.90
2019-03-20T06:49:31.258Z,9.13
2019-03-20T06:52:01.525Z,8.73
2019-03-20T06:54:32.335Z,9.13
2019-03-20T06:57:02.500Z,9.07
2019-03-20T07:00:12.373Z,9.20
2019-03-20T07:02:48.643Z,9.13
2019-03-20T07:05:56.003Z,9.17
2019-03-20T07:08:28.627Z,9.40
2019-03-20T07:11:11.838Z,8.90
2019-03-20T07:13:41.996Z,9.20
2019-03-20T07:16:12.266Z,8.90
2019-03-20T07:18:44.140Z,8.83
2019-03-20T07:21:14.815Z,8.53
2019-03-20T07:23:45.294Z,8.20
2019-03-20T07:26:17.118Z,8.53
2019-03-20T07:28:49.122Z,8.33
2019-03-20T07:31:20.757Z,8.47
2019-03-20T07:33:54.284Z,7.60
2019-03-20T07:36:32.921Z,8.60
2019-03-20T07:39:04.438Z,8.07
2019-03-20T07:41:34.681Z,8.30
2019-03-20T07:44:07.728Z,9.17
2019-03-20T07:46:40.731Z,7.90
2019-03-20T07:49:12.617Z,8.23
2019-03-20T07:51:45.428Z,8.63
2019-03-20T07:54:16.819Z,8.37
2019-03-20T07:56:49.055Z,8.83
2019-03-20T07:59:19.594Z,8.70
2019-03-20T08:01:51.050Z,9.17
2019-03-20T08:04:21.318Z,8.47
2019-03-20T08:06:53.454Z,9.07
2019-03-20T08:09:25.665Z,8.67
2019-03-20T08:11:56.428Z,8.73
2019-03-20T08:14:26.617Z,8.40
2019-03-20T08:16:57.918Z,8.60
2019-03-20T08:19:28.166Z,8.67
2019-03-20T08:21:58.346Z,8.50
2019-03-20T08:24:29.839Z,9.03
2019-03-20T08:27:00.547Z,8.20
2019-03-20T08:29:30.777Z,8.13
2019-03-20T08:32:00.961Z,8.47
2019-03-20T08:34:32.195Z,8.67
2019-03-20T08:37:02.610Z,8.40
2019-03-20T08:39:34.551Z,8.20
2019-03-20T08:42:05.180Z,8.90
2019-03-20T08:44:36.072Z,8.40
2019-03-20T08:47:06.688Z,8.23
2019-03-20T08:49:37.314Z,8.53
2019-03-20T08:52:09.940Z,8.60
2019-03-20T08:54:41.019Z,8.20
2019-03-20T08:57:12.130Z,8.37
2019-03-20T08:59:43.660Z,8.23
2019-03-20T09:02:18.820Z,8.00
2019-03-20T09:04:51.896Z,8.50
2019-03-20T09:07:23.072Z,8.60
2019-03-20T09:09:54.165Z,8.40
2019-03-20T09:12:24.643Z,8.00
2019-03-20T09:14:54.849Z,9.07
2019-03-20T09:17:25.506Z,8.00
2019-03-20T09:19:55.665Z,8.43
2019-03-20T09:22:25.887Z,8.80
2019-03-20T09:24:56.068Z,8.37
2019-03-20T09:27:26.213Z,9.10
2019-03-20T09:29:58.029Z,9.10
2019-03-20T09:32:29.092Z,8.47
2019-03-20T09:35:00.804Z,8.87
2019-03-20T09:37:31.475Z,8.67
2019-03-20T09:40:02.922Z,8.40
2019-03-20T09:42:33.954Z,8.70
2019-03-20T09:45:06.862Z,8.30
2019-03-20T09:47:38.490Z,8.30
2019-03-20T09:50:11.761Z,8.27
2019-03-20T09:52:42.394Z,8.60
2019-03-20T09:55:13.038Z,8.23
2019-03-20T09:57:43.615Z,7.73
2019-03-20T10:00:22.732Z,8.30
2019-03-20T10:02:53.334Z,7.97
2019-03-20T10:05:23.825Z,7.70
2019-03-20T10:07:54.343Z,8.00
2019-03-20T10:10:24.514Z,8.27
2019-03-20T10:12:55.149Z,7.57
2019-03-20T10:15:26.026Z,8.33
2019-03-20T10:17:56.310Z,7.90
2019-03-20T10:20:28.911Z,8.13
2019-03-20T10:22:59.218Z,7.80
2019-03-20T10:25:29.397Z,8.10
2019-03-20T10:27:59.581Z,8.50
2019-03-20T10:30:31.644Z,7.83
2019-03-20T10:33:02.192Z,7.87
2019-03-20T10:35:34.042Z,7.73
2019-03-20T10:38:05.305Z,7.57
2019-03-20T10:40:38.812Z,7.57
2019-03-20T10:43:09.828Z,7.53
2019-03-20T10:45:42.833Z,7.20
2019-03-20T10:48:13.599Z,7.53
2019-03-20T10:50:45.063Z,7.20
2019-03-20T10:53:16.475Z,7.60
2019-03-20T10:55:46.635Z,7.53
2019-03-20T10:58:16.852Z,7.00
2019-03-20T11:00:48.085Z,7.60
2019-03-20T11:03:18.980Z,7.87
2019-03-20T11:05:51.376Z,8.17
2019-03-20T11:08:23.581Z,7.30
2019-03-20T11:10:54.738Z,7.97
2019-03-20T11:13:26.522Z,7.87
2019-03-20T11:15:58.931Z,7.97
2019-03-20T11:18:32.182Z,8.00
2019-03-20T11:21:03.069Z,7.53
2019-03-20T11:23:38.691Z,7.90
2019-03-20T11:26:09.794Z,7.90
2019-03-20T11:28:41.374Z,8.33
2019-03-20T11:31:20.714Z,8.23
2019-03-20T11:33:53.110Z,8.13
2019-03-20T11:36:25.237Z,8.13
2019-03-20T11:39:00.031Z,7.80
2019-03-20T11:41:30.247Z,7.87
2019-03-20T11:44:01.426Z,7.60
2019-03-20T11:46:32.878Z,8.67
2019-03-20T11:49:03.171Z,8.23
2019-03-20T11:51:33.735Z,8.13
2019-03-20T11:54:05.915Z,9.17
2019-03-20T11:56:36.084Z,8.60
2019-03-20T11:59:06.253Z,8.80
2019-03-20T12:01:37.060Z,8.47
2019-03-20T12:04:07.690Z,9.40
2019-03-20T12:06:37.976Z,8.50
2019-03-20T12:09:10.459Z,8.33
2019-03-20T12:11:46.148Z,8.77
2019-03-20T12:14:15.780Z,8.53
2019-03-20T12:16:46.751Z,8.73
2019-03-20T12:19:17.393Z,8.43
2019-03-20T12:21:49.389Z,7.93
2019-03-20T12:24:20.053Z,7.93
2019-03-20T12:26:51.578Z,8.27
2019-03-20T12:29:22.556Z,8.00
2019-03-20T12:31:53.154Z,8.17
2019-03-20T12:34:23.868Z,8.40
2019-03-20T12:36:56.535Z,8.70
2019-03-20T12:39:26.852Z,8.80
2019-03-20T12:41:58.284Z,8.70
2019-03-20T12:44:31.847Z,8.67
2019-03-20T12:47:03.610Z,8.63
2019-03-20T12:49:35.427Z,7.80
2019-03-20T12:52:05.610Z,8.47
2019-03-20T12:54:37.300Z,7.03
2019-03-20T12:57:09.623Z,6.00
2019-03-20T12:59:40.270Z,5.40
2019-03-20T13:02:11.125Z,5.77
2019-03-20T13:04:41.763Z,7.23
2019-03-20T13:07:11.951Z,6.80
2019-03-20T13:09:42.567Z,6.07
2019-03-20T13:12:13.767Z,6.23
2019-03-20T13:14:43.955Z,5.90
2019-03-20T13:17:16.631Z,5.93
2019-03-20T13:19:48.374Z,6.03
2019-03-20T13:22:21.361Z,5.60
2019-03-20T13:24:52.421Z,5.97
2019-03-20T13:27:23.846Z,5.80
2019-03-20T13:29:54.807Z,6.33
2019-03-20T13:32:25.745Z,8.47
2019-03-20T13:34:56.520Z,5.23
2019-03-20T13:37:26.755Z,5.00
2019-03-20T13:39:56.946Z,5.23
2019-03-20T13:42:27.965Z,5.00
2019-03-20T13:44:58.990Z,4.30
2019-03-20T13:47:30.581Z,4.27
2019-03-20T13:50:01.219Z,4.27
2019-03-20T13:52:32.916Z,4.00
2019-03-20T13:55:03.094Z,4.27
2019-03-20T13:57:35.058Z,4.50
2019-03-20T14:00:10.139Z,4.10
2019-03-20T14:02:40.864Z,4.10
2019-03-20T14:05:11.018Z,4.00
2019-03-20T14:07:41.570Z,3.80
2019-03-20T14:10:24.319Z,4.00
2019-03-20T14:12:47.262Z,3.40
2019-03-20T14:15:17.591Z,3.63
2019-03-20T14:17:49.686Z,3.90
2019-03-20T14:20:24.384Z,2.90
2019-03-20T14:22:56.678Z,2.83
2019-03-20T14:25:27.322Z,3.33
2019-03-20T14:27:57.546Z,3.70
2019-03-20T14:30:28.171Z,3.33
2019-03-20T14:32:58.988Z,3.40
2019-03-20T14:35:30.556Z,3.60
2019-03-20T14:38:01.190Z,3.37
2019-03-20T14:40:36.202Z,3.20
2019-03-20T14:43:04.935Z,2.93
2019-03-20T14:45:35.548Z,3.20
2019-03-20T14:48:08.312Z,3.63
2019-03-20T14:50:40.647Z,3.70
2019-03-20T14:53:12.055Z,3.90
2019-03-20T14:55:42.698Z,3.73
2019-03-20T14:58:13.336Z,3.60
2019-03-20T15:00:45.224Z,3.10
2019-03-20T15:03:15.832Z,2.83
2019-03-20T15:05:46.868Z,3.13
2019-03-20T15:08:18.324Z,4.13
2019-03-20T15:10:48.506Z,3.00
2019-03-20T15:13:19.416Z,2.50
2019-03-20T15:15:59.931Z,2.90
2019-03-20T15:18:30.637Z,3.20
2019-03-20T15:21:01.626Z,2.70
2019-03-20T15:23:33.226Z,3.20
2019-03-20T15:26:06.217Z,2.60
2019-03-20T15:28:38.984Z,2.67
2019-03-20T15:31:10.271Z,2.50
2019-03-20T15:33:42.039Z,2.90
2019-03-20T15:36:21.833Z,2.60
2019-03-20T15:38:52.839Z,2.90
2019-03-20T15:41:24.067Z,2.70
2019-03-20T15:44:02.442Z,3.23
2019-03-20T15:46:29.058Z,2.90
2019-03-20T15:49:01.390Z,3.40
2019-03-20T15:51:32.025Z,2.77
2019-03-20T15:54:02.215Z,2.97
2019-03-20T15:56:33.735Z,3.27
2019-03-20T15:59:04.477Z,3.10
2019-03-20T16:01:35.770Z,3.30
2019-03-20T16:04:06.978Z,3.00
2019-03-20T16:06:37.468Z,3.17
2019-03-20T16:09:09.185Z,3.07
2019-03-20T16:11:40.377Z,2.97
2019-03-20T16:14:11.554Z,3.40
2019-03-20T16:16:41.964Z,3.17
2019-03-20T16:19:13.254Z,3.43
2019-03-20T16:21:47.915Z,3.23
2019-03-20T16:24:18.902Z,3.17
2019-03-20T16:26:50.522Z,2.97
2019-03-20T16:29:23.048Z,2.70
2019-03-20T16:31:54.141Z,3.50
2019-03-20T16:34:24.688Z,2.97
2019-03-20T16:36:56.291Z,2.87
2019-03-20T16:39:26.943Z,2.87
2019-03-20T16:41:58.683Z,3.07
2019-03-20T16:44:29.827Z,2.93
2019-03-20T16:47:00.746Z,2.83
2019-03-20T16:49:32.459Z,2.77
2019-03-20T16:52:04.427Z,2.80
2019-03-20T16:54:37.475Z,2.97
2019-03-20T16:57:09.236Z,2.63
2019-03-20T16:59:40.607Z,2.83
2019-03-20T17:02:11.301Z,2.50
2019-03-20T17:04:41.499Z,2.67
2019-03-20T17:07:13.852Z,2.60
2019-03-20T17:09:45.878Z,3.00
2019-03-20T17:12:17.302Z,2.80
2019-03-20T17:14:47.560Z,3.00
2019-03-20T17:17:18.643Z,3.20
2019-03-20T17:19:48.867Z,2.90
2019-03-20T17:22:19.681Z,2.97
2019-03-20T17:24:50.932Z,3.27
2019-03-20T17:27:22.735Z,3.43
2019-03-20T17:29:54.254Z,3.10
2019-03-20T17:32:25.428Z,3.90
2019-03-20T17:34:56.080Z,3.60
2019-03-20T17:37:27.291Z,3.80
2019-03-20T17:40:01.446Z,4.30
2019-03-20T17:42:37.784Z,6.10
2019-03-20T17:45:10.468Z,4.70
2019-03-20T17:47:42.887Z,4.20
2019-03-20T17:50:20.943Z,4.40
2019-03-20T17:52:52.255Z,4.20
2019-03-20T17:55:24.113Z,4.30
2019-03-20T17:57:56.914Z,4.47
2019-03-20T18:00:36.010Z,4.30
2019-03-20T18:03:08.952Z,4.37
2019-03-20T18:05:40.441Z,4.60
2019-03-20T18:08:11.835Z,4.47
2019-03-20T18:10:43.721Z,4.50
2019-03-20T18:13:16.465Z,4.60
2019-03-20T18:15:47.659Z,4.60
2019-03-20T18:18:19.005Z,4.80
2019-03-20T18:20:54.424Z,4.70
2019-03-20T18:23:27.805Z,5.07
2019-03-20T18:25:58.942Z,5.50
2019-03-20T18:28:33.209Z,5.00
2019-03-20T18:31:04.847Z,5.27
2019-03-20T18:33:36.780Z,5.77
2019-03-20T18:36:07.320Z,5.10
2019-03-20T18:38:38.132Z,5.80
2019-03-20T18:41:08.376Z,5.23
2019-03-20T18:43:38.810Z,5.53
2019-03-20T18:46:11.184Z,5.03
2019-03-20T18:48:43.345Z,5.47
2019-03-20T18:51:39.821Z,6.00
2019-03-20T18:54:15.049Z,5.83
2019-03-20T18:56:47.871Z,5.80
2019-03-20T18:59:19.573Z,6.10
2019-03-20T19:01:51.888Z,6.27
2019-03-20T19:04:22.136Z,6.17
2019-03-20T19:06:53.366Z,6.67
2019-03-20T19:09:24.356Z,6.17
2019-03-20T19:11:55.629Z,6.33
2019-03-20T19:14:26.202Z,6.17
2019-03-20T19:16:57.388Z,6.47
2019-03-20T19:19:28.157Z,6.50
2019-03-20T19:21:58.500Z,6.37
2019-03-20T19:24:29.045Z,6.80
2019-03-20T19:27:01.081Z,6.60
2019-03-20T19:29:32.796Z,6.77
2019-03-20T19:32:04.621Z,6.90
2019-03-20T19:34:36.257Z,7.30
2019-03-20T19:37:06.901Z,7.50
2019-03-20T19:39:38.634Z,7.50
2019-03-20T19:42:19.556Z,7.20
2019-03-20T19:44:44.112Z,7.50
2019-03-20T19:47:16.613Z,7.30
2019-03-20T19:49:47.581Z,7.60
2019-03-20T19:52:20.010Z,7.00
2019-03-20T19:54:52.366Z,7.17
2019-03-20T19:57:24.268Z,7.47
2019-03-20T19:59:56.814Z,7.80
2019-03-20T20:02:27.812Z,7.10
2019-03-20T20:05:00.082Z,7.50
2019-03-20T20:07:30.703Z,7.60
2019-03-20T20:10:01.751Z,8.20
2019-03-20T20:12:36.302Z,8.33
2019-03-20T20:15:09.497Z,8.73
2019-03-20T20:17:40.405Z,9.30
2019-03-20T20:20:16.024Z,9.37
2019-03-20T20:22:48.385Z,8.83
2019-03-20T20:25:19.569Z,8.70
2019-03-20T20:27:50.668Z,8.50
2019-03-20T20:30:22.032Z,8.13
2019-03-20T20:32:55.482Z,8.27
2019-03-20T20:35:27.517Z,8.17
2019-03-20T20:37:58.040Z,7.80
2019-03-20T20:40:29.960Z,7.30
2019-03-20T20:43:01.810Z,7.57
2019-03-20T20:45:33.166Z,7.87
2019-03-20T20:48:04.084Z,8.30
2019-03-20T20:50:36.709Z,9.17
2019-03-20T20:53:09.163Z,10.53
2019-03-20T20:55:39.733Z,9.30
2019-03-20T20:58:10.097Z,9.83
2019-03-20T21:00:40.652Z,9.47
2019-03-20T21:03:11.239Z,10.00
2019-03-20T21:05:42.402Z,9.70
2019-03-20T21:08:13.650Z,9.90
2019-03-20T21:10:45.947Z,9.57
2019-03-20T21:13:18.978Z,9.53
2019-03-20T21:15:54.294Z,9.80
2019-03-20T21:19:09.544Z,10.43
2019-03-20T21:22:25.484Z,11.23
2019-03-20T21:24:56.239Z,10.90
2019-03-20T21:28:05.275Z,11.40
2019-03-20T21:31:06.608Z,10.40
2019-03-20T21:34:17.234Z,11.23
2019-03-20T21:37:23.156Z,11.10
2019-03-20T21:39:54.835Z,10.83
2019-03-20T21:43:06.960Z,9.97
2019-03-20T21:46:43.429Z,9.87
2019-03-20T21:49:16.493Z,11.40
2019-03-20T21:51:49.239Z,9.90
2019-03-20T21:54:56.840Z,10.03
2019-03-20T21:57:54.596Z,10.77
2019-03-20T22:01:20.323Z,11.60
2019-03-20T22:03:51.490Z,11.17
2019-03-20T22:07:12.171Z,11.57
2019-03-20T22:10:34.528Z,11.00
2019-03-20T22:13:30.387Z,10.37
2019-03-20T22:16:20.582Z,10.77
2019-03-20T22:19:44.477Z,9.40
2019-03-20T22:23:05.903Z,9.40
2019-03-20T22:26:22.153Z,9.00
2019-03-20T22:29:10.930Z,9.13
2019-03-20T22:31:48.064Z,9.03
2019-03-20T22:35:05.384Z,8.87
2019-03-20T22:37:36.552Z,9.40
2019-03-20T22:41:03.622Z,8.80
2019-03-20T22:43:50.717Z,8.57
2019-03-20T22:46:56.683Z,8.23
2019-03-20T22:50:05.233Z,8.73
2019-03-20T22:53:23.073Z,8.70
2019-03-20T22:56:17.416Z,8.53
2019-03-20T22:58:50.921Z,8.60
2019-03-20T23:01:56.234Z,9.23
2019-03-20T23:04:39.182Z,8.90
2019-03-20T23:07:11.048Z,8.67
2019-03-20T23:09:45.687Z,8.50
2019-03-20T23:12:18.874Z,8.53
2019-03-20T23:14:51.760Z,8.43
2019-03-20T23:17:24.118Z,8.93
2019-03-20T23:19:58.223Z,8.50
2019-03-20T23:22:31.980Z,9.30
2019-03-20T23:25:03.226Z,9.03
2019-03-20T23:27:34.357Z,8.27
2019-03-20T23:30:11.775Z,8.80
2019-03-20T23:32:44.189Z,9.13
2019-03-20T23:35:18.183Z,8.57
2019-03-20T23:37:51.189Z,8.10
2019-03-20T23:40:23.191Z,8.97
2019-03-20T23:42:54.901Z,8.80
2019-03-20T23:45:28.132Z,9.07
2019-03-20T23:48:03.212Z,9.63
2019-03-20T23:50:35.282Z,8.40
2019-03-20T23:53:07.340Z,9.10
2019-03-20T23:55:38.055Z,8.83
2019-03-20T23:58:14.493Z,8.47
